Metar z pełnej godziny Komunikat METAR ze strony awiacja.imgw.pl Metar G00 EPKK METAR EPKK 172100Z VRB02KT CAVOK 13/09 Q1021 =